Time;durP1;ratioP1;P1;durP2;ratioP2;P2;SDS_P1;SDS_P2;PMS_P1;PMS_P2;Temp;Humidity;BMP_temperature;BMP_pressure;BME280_temperature;BME280_humidity;BME280_pressure;Samples;Min_cycle;Max_cycle;Signal;HPM_P1;HPM_P2
2021/01/09 00:00:13;;;;;;;38.10;22.08;;;1.40;99.90;;;;;;5023249;28;20359;-80
2021/01/09 00:02:40;;;;;;;47.75;24.60;;;1.40;99.90;;;;;;5043485;28;20041;-78
2021/01/09 00:05:08;;;;;;;41.95;23.05;;;1.40;99.90;;;;;;5035295;28;20061;-79
2021/01/09 00:07:36;;;;;;;43.33;24.63;;;1.40;99.90;;;;;;5040588;28;20042;-79
2021/01/09 00:10:05;;;;;;;40.10;22.60;;;1.50;99.90;;;;;;5031871;28;20497;-80
2021/01/09 00:12:33;;;;;;;44.60;23.80;;;1.50;99.90;;;;;;5020487;28;20588;-79
2021/01/09 00:15:00;;;;;;;63.85;32.80;;;1.40;99.90;;;;;;5015320;28;20045;-78
2021/01/09 00:17:26;;;;;;;56.15;30.25;;;1.40;99.90;;;;;;5041688;28;20489;-79
2021/01/09 00:19:52;;;;;;;105.65;52.75;;;1.40;99.90;;;;;;5031306;28;20048;-79
2021/01/09 00:22:19;;;;;;;57.22;30.30;;;1.40;99.90;;;;;;5014260;28;20048;-79
2021/01/09 00:24:45;;;;;;;46.13;26.40;;;1.40;99.90;;;;;;5032324;28;20406;-79
2021/01/09 00:27:12;;;;;;;44.38;24.77;;;1.40;99.90;;;;;;5044442;28;20029;-80
2021/01/09 00:29:42;;;;;;;44.65;25.88;;;1.40;99.90;;;;;;5033516;28;20045;-79
2021/01/09 00:32:09;;;;;;;39.55;23.92;;;1.50;99.90;;;;;;5014164;28;20037;-79
2021/01/09 00:34:35;;;;;;;40.10;22.60;;;1.40;99.90;;;;;;5045197;28;20056;-80
2021/01/09 00:37:01;;;;;;;51.22;23.60;;;1.40;99.90;;;;;;5033570;28;20052;-79
2021/01/09 00:39:30;;;;;;;43.70;23.70;;;1.40;99.90;;;;;;5044330;28;20041;-79
2021/01/09 00:42:00;;;;;;;49.30;24.30;;;1.30;99.90;;;;;;5032281;28;20052;-79
2021/01/09 00:44:27;;;;;;;42.80;24.15;;;1.30;99.90;;;;;;5049403;28;20056;-79
2021/01/09 00:46:55;;;;;;;48.95;24.58;;;1.30;99.90;;;;;;5032204;28;20049;-79
2021/01/09 00:49:22;;;;;;;44.90;23.70;;;1.30;99.90;;;;;;5030163;28;20034;-79
2021/01/09 00:51:48;;;;;;;50.45;23.85;;;1.20;99.90;;;;;;5043807;28;20041;-79
2021/01/09 00:54:15;;;;;;;43.72;23.48;;;1.20;99.90;;;;;;5031157;28;20049;-80
2021/01/09 00:56:41;;;;;;;44.20;23.55;;;1.20;99.90;;;;;;5045613;28;20041;-78
2021/01/09 00:59:07;;;;;;;39.13;22.33;;;1.20;99.90;;;;;;5034527;28;20056;-79
2021/01/09 01:01:34;;;;;;;45.17;23.45;;;1.20;99.90;;;;;;5053077;28;20597;-79
2021/01/09 01:04:01;;;;;;;43.13;22.90;;;1.20;99.90;;;;;;5052622;28;20056;-79
2021/01/09 01:06:27;;;;;;;45.50;22.50;;;1.30;99.90;;;;;;5023562;28;20047;-79
2021/01/09 01:08:54;;;;;;;43.53;23.50;;;1.30;99.90;;;;;;5034780;28;20044;-78
2021/01/09 01:11:28;;;;;;;42.08;22.48;;;1.30;99.90;;;;;;5053150;28;20033;-79
2021/01/09 01:13:55;;;;;;;42.85;23.58;;;1.20;99.90;;;;;;5018122;28;20145;-79
2021/01/09 01:16:22;;;;;;;46.70;24.35;;;1.20;99.90;;;;;;5047256;28;20045;-79
2021/01/09 01:18:49;;;;;;;45.42;23.17;;;1.20;99.90;;;;;;5034421;28;20037;-79
2021/01/09 01:21:16;;;;;;;42.58;22.38;;;1.20;99.90;;;;;;5041437;28;20052;-80
2021/01/09 01:23:42;;;;;;;44.17;22.85;;;1.20;99.90;;;;;;5049345;28;20064;-79
2021/01/09 01:26:12;;;;;;;44.45;23.55;;;1.10;99.90;;;;;;5034855;28;20398;-79
2021/01/09 01:28:39;;;;;;;42.08;23.08;;;1.10;99.90;;;;;;5052458;28;20052;-79
2021/01/09 01:31:07;;;;;;;42.80;24.05;;;1.00;99.90;;;;;;5044702;28;20041;-79
2021/01/09 01:33:33;;;;;;;42.72;22.60;;;1.00;99.90;;;;;;5031201;28;20037;-79
2021/01/09 01:36:00;;;;;;;54.08;22.10;;;0.80;99.90;;;;;;5034167;28;20382;-79
2021/01/09 01:38:26;;;;;;;38.03;20.63;;;0.80;99.90;;;;;;5034162;28;20033;-79
2021/01/09 01:41:00;;;;;;;37.13;21.40;;;0.60;99.90;;;;;;5047900;28;20036;-78
2021/01/09 01:43:27;;;;;;;41.72;21.05;;;0.50;99.90;;;;;;5035776;28;20041;-78
2021/01/09 01:45:53;;;;;;;39.78;19.48;;;0.40;99.90;;;;;;5033297;28;20053;-79
2021/01/09 01:48:19;;;;;;;38.50;20.48;;;0.30;99.90;;;;;;5042637;28;20038;-79
2021/01/09 01:50:46;;;;;;;35.53;20.63;;;0.20;99.90;;;;;;5037681;28;20042;-78
2021/01/09 01:53:12;;;;;;;43.30;21.73;;;0.20;99.90;;;;;;5033597;28;20037;-78
2021/01/09 01:55:38;;;;;;;36.08;20.85;;;0.20;99.90;;;;;;5041942;28;20474;-78
2021/01/09 01:58:04;;;;;;;39.33;21.65;;;0.20;99.90;;;;;;5034299;28;20030;-79
2021/01/09 02:00:30;;;;;;;43.20;22.75;;;0.30;99.90;;;;;;5051530;28;20033;-78
2021/01/09 02:03:03;;;;;;;44.65;21.70;;;0.20;99.90;;;;;;5026530;28;20041;-78
2021/01/09 02:05:40;;;;;;;42.38;21.77;;;0.20;99.90;;;;;;5033760;28;20044;-78
2021/01/09 02:08:11;;;;;;;46.13;21.98;;;0.20;99.90;;;;;;5048445;28;20486;-78
2021/01/09 02:10:38;;;;;;;39.65;21.52;;;0.20;99.90;;;;;;5048066;28;20041;-78
2021/01/09 02:13:12;;;;;;;44.15;22.80;;;0.20;99.90;;;;;;5049419;28;20033;-78
2021/01/09 02:15:40;;;;;;;45.28;23.70;;;0.10;99.90;;;;;;5033431;28;20037;-78
2021/01/09 02:18:07;;;;;;;50.00;22.55;;;0.00;99.90;;;;;;5035633;28;20037;-78
2021/01/09 02:20:35;;;;;;;49.75;22.60;;;0.10;99.90;;;;;;5033427;28;20036;-78
2021/01/09 02:23:02;;;;;;;42.97;21.05;;;0.00;99.90;;;;;;5048711;28;20060;-78
2021/01/09 02:25:29;;;;;;;46.72;22.92;;;0.00;99.90;;;;;;5039845;28;20045;-79
2021/01/09 02:27:56;;;;;;;46.83;21.48;;;0.00;99.90;;;;;;5049622;28;20048;-78
2021/01/09 02:30:26;;;;;;;42.80;23.23;;;0.00;99.90;;;;;;5046717;28;20030;-78
2021/01/09 02:33:13;;;;;;;51.40;23.40;;;0.00;99.90;;;;;;5042468;28;20048;-78
2021/01/09 02:35:40;;;;;;;44.00;21.40;;;-0.10;99.90;;;;;;5032733;28;20581;-78
2021/01/09 02:38:07;;;;;;;44.25;22.00;;;-0.10;99.90;;;;;;5026418;28;20037;-78
2021/01/09 02:40:40;;;;;;;45.67;22.02;;;-0.20;99.90;;;;;;5047181;28;20021;-78
2021/01/09 02:43:13;;;;;;;44.55;21.65;;;-0.30;99.90;;;;;;5017255;28;20390;-78
2021/01/09 02:45:40;;;;;;;41.00;20.58;;;-0.40;99.90;;;;;;5031920;28;20080;-78
2021/01/09 02:48:07;;;;;;;44.95;21.58;;;-0.40;99.90;;;;;;5033836;28;20487;-78
2021/01/09 02:50:34;;;;;;;48.67;21.88;;;-0.50;99.90;;;;;;5032217;28;20040;-78
2021/01/09 02:53:00;;;;;;;47.72;21.52;;;-0.50;99.90;;;;;;5048683;28;20471;-79
2021/01/09 02:55:26;;;;;;;41.58;19.92;;;-0.50;99.90;;;;;;5032834;28;20038;-79
2021/01/09 02:57:53;;;;;;;43.00;20.30;;;-0.60;99.90;;;;;;5048149;28;20040;-77
2021/01/09 03:00:19;;;;;;;49.20;20.75;;;-0.60;99.90;;;;;;5030567;28;20036;-78
2021/01/09 03:02:45;;;;;;;44.00;21.17;;;-0.60;99.90;;;;;;5033841;28;20045;-78
2021/01/09 03:05:12;;;;;;;40.08;19.75;;;-0.70;99.90;;;;;;5047182;28;20053;-78
2021/01/09 03:07:38;;;;;;;41.33;17.42;;;-0.80;99.90;;;;;;5032689;28;20021;-78
2021/01/09 03:10:05;;;;;;;47.00;20.48;;;-0.70;99.90;;;;;;5048146;28;20041;-78
2021/01/09 03:12:31;;;;;;;41.35;18.55;;;-0.80;99.90;;;;;;5047222;28;20037;-78
2021/01/09 03:14:58;;;;;;;41.35;17.58;;;-0.80;99.90;;;;;;5047276;28;20042;-78
2021/01/09 03:17:25;;;;;;;42.75;18.67;;;-0.80;99.90;;;;;;5046432;28;20037;-79
2021/01/09 03:19:51;;;;;;;35.15;17.30;;;-0.90;99.90;;;;;;5049797;28;20026;-78
2021/01/09 03:22:17;;;;;;;33.42;15.77;;;-1.10;99.90;;;;;;5014672;28;20447;-80
2021/01/09 03:24:43;;;;;;;29.95;17.08;;;-1.20;99.90;;;;;;5033572;28;20037;-78
2021/01/09 03:27:10;;;;;;;35.80;16.85;;;-1.20;99.90;;;;;;5050806;28;20414;-78
2021/01/09 03:29:36;;;;;;;33.15;16.70;;;-1.30;99.90;;;;;;5046906;28;20029;-77
2021/01/09 03:32:02;;;;;;;33.88;18.05;;;-1.40;99.90;;;;;;5032875;28;20037;-78
2021/01/09 03:34:28;;;;;;;33.67;16.23;;;-1.50;99.90;;;;;;5034933;28;20040;-78
2021/01/09 03:36:55;;;;;;;34.88;17.08;;;-1.40;99.90;;;;;;5040973;28;20406;-78
2021/01/09 03:39:21;;;;;;;37.53;18.10;;;-1.30;99.90;;;;;;5047532;28;20041;-79
2021/01/09 03:41:47;;;;;;;41.35;19.40;;;-1.30;99.90;;;;;;5053054;28;20041;-79
2021/01/09 03:44:13;;;;;;;32.05;16.08;;;-1.30;99.90;;;;;;5029975;28;20037;-79
2021/01/09 03:46:39;;;;;;;38.92;16.92;;;-1.40;99.90;;;;;;5030976;28;20052;-78
2021/01/09 03:49:06;;;;;;;38.13;19.17;;;-1.30;99.90;;;;;;5047016;28;20056;-78
2021/01/09 03:51:32;;;;;;;40.72;19.65;;;-1.20;99.90;;;;;;5046771;28;20029;-79
2021/01/09 03:53:58;;;;;;;39.58;18.48;;;-1.20;99.90;;;;;;5047395;28;20489;-78
2021/01/09 03:56:24;;;;;;;36.38;18.52;;;-1.10;99.90;;;;;;5040769;28;20045;-79
2021/01/09 03:58:50;;;;;;;42.55;20.27;;;-1.10;99.90;;;;;;5027309;28;20447;-79
2021/01/09 04:01:17;;;;;;;39.80;18.92;;;-1.10;99.90;;;;;;5032757;28;20510;-79
2021/01/09 04:03:43;;;;;;;42.47;20.38;;;-1.00;99.90;;;;;;5014668;28;20045;-79
2021/01/09 04:06:09;;;;;;;42.20;19.15;;;-0.90;99.90;;;;;;5030859;28;20050;-79
2021/01/09 04:08:35;;;;;;;45.90;19.80;;;-0.90;99.90;;;;;;5041673;28;20045;-79
2021/01/09 04:11:01;;;;;;;45.78;19.60;;;-0.90;99.90;;;;;;5032659;28;20025;-79
2021/01/09 04:13:28;;;;;;;37.65;19.00;;;-0.80;99.90;;;;;;5038439;28;20038;-79
2021/01/09 04:15:54;;;;;;;44.28;19.35;;;-0.80;99.90;;;;;;5051476;28;20032;-79
2021/01/09 04:18:20;;;;;;;45.75;18.30;;;-0.70;99.90;;;;;;5050241;28;20029;-79
2021/01/09 04:20:46;;;;;;;39.40;18.92;;;-0.70;99.90;;;;;;5031625;28;20391;-79
2021/01/09 04:23:12;;;;;;;39.65;17.50;;;-0.70;99.90;;;;;;5031213;28;20041;-79
2021/01/09 04:25:39;;;;;;;42.42;18.90;;;-0.70;99.90;;;;;;5033783;28;20033;-77
2021/01/09 04:28:05;;;;;;;40.35;18.23;;;-0.70;99.90;;;;;;5015615;28;20506;-77
2021/01/09 04:30:31;;;;;;;39.45;18.58;;;-0.70;99.90;;;;;;5037094;28;20493;-78
2021/01/09 04:32:57;;;;;;;44.30;18.48;;;-0.80;99.90;;;;;;5035207;28;20040;-77
2021/01/09 04:35:24;;;;;;;38.00;18.17;;;-0.80;99.90;;;;;;5050240;28;20414;-79
2021/01/09 04:37:50;;;;;;;45.03;18.92;;;-0.80;99.90;;;;;;5036524;28;20022;-79
2021/01/09 04:40:16;;;;;;;45.55;19.40;;;-0.70;99.90;;;;;;5047678;28;20041;-78
2021/01/09 04:42:42;;;;;;;40.58;19.45;;;-0.70;99.90;;;;;;5034829;28;20065;-79
2021/01/09 04:45:10;;;;;;;36.90;19.10;;;-0.70;99.90;;;;;;5049454;28;20041;-79
2021/01/09 04:47:38;;;;;;;48.13;19.52;;;-0.60;99.90;;;;;;5037316;28;20071;-79
2021/01/09 04:50:05;;;;;;;43.50;19.20;;;-0.60;99.90;;;;;;5052748;28;20041;-80
2021/01/09 04:52:31;;;;;;;43.50;20.05;;;-0.60;99.90;;;;;;5035565;28;20462;-79
2021/01/09 04:54:59;;;;;;;45.72;20.85;;;-0.50;99.90;;;;;;5036001;28;20045;-79
2021/01/09 04:57:31;;;;;;;40.25;19.08;;;-0.50;99.90;;;;;;5035329;28;20040;-78
2021/01/09 04:59:58;;;;;;;42.20;20.40;;;-0.50;99.90;;;;;;5035748;28;20052;-79
2021/01/09 05:02:26;;;;;;;43.67;18.95;;;-0.40;99.90;;;;;;5021462;28;20057;-79
2021/01/09 05:04:53;;;;;;;41.50;20.17;;;-0.40;99.90;;;;;;5017351;28;20065;-78
2021/01/09 05:07:19;;;;;;;45.15;19.35;;;-0.50;99.90;;;;;;5036866;28;20076;-79
2021/01/09 05:09:46;;;;;;;43.88;19.08;;;-0.50;99.90;;;;;;5051288;28;20601;-78
2021/01/09 05:12:14;;;;;;;39.10;17.90;;;-0.40;99.90;;;;;;5037459;28;20037;-78
2021/01/09 05:14:42;;;;;;;41.25;18.25;;;-0.50;99.90;;;;;;5035607;28;20561;-78
2021/01/09 05:17:08;;;;;;;40.70;18.95;;;-0.50;99.90;;;;;;5036527;28;20032;-78
2021/01/09 05:19:34;;;;;;;41.38;18.13;;;-0.50;99.90;;;;;;5052585;28;20033;-78
2021/01/09 05:22:02;;;;;;;44.58;19.23;;;-0.50;99.90;;;;;;5053687;28;20037;-78
2021/01/09 05:24:28;;;;;;;36.70;19.23;;;-0.50;99.90;;;;;;5053514;28;20039;-79
2021/01/09 05:26:54;;;;;;;38.00;18.38;;;-0.50;99.90;;;;;;5034560;28;20049;-78
2021/01/09 05:29:21;;;;;;;40.15;19.77;;;-0.50;99.90;;;;;;5035759;28;20026;-79
2021/01/09 05:31:48;;;;;;;38.15;17.80;;;-0.50;99.90;;;;;;5035197;28;20033;-78
2021/01/09 05:34:14;;;;;;;38.70;17.85;;;-0.50;99.90;;;;;;5050592;28;20029;-78
2021/01/09 05:36:41;;;;;;;42.83;18.40;;;-0.50;99.90;;;;;;5035450;28;20485;-78
2021/01/09 05:39:07;;;;;;;40.20;19.02;;;-0.50;99.90;;;;;;5052439;28;20042;-78
2021/01/09 05:41:34;;;;;;;36.38;17.10;;;-0.50;99.90;;;;;;5045781;28;20057;-79
2021/01/09 05:44:02;;;;;;;43.25;18.85;;;-0.50;99.90;;;;;;5049527;28;20068;-78
2021/01/09 05:46:30;;;;;;;41.83;18.17;;;-0.50;99.90;;;;;;5052601;28;20041;-78
2021/01/09 05:48:57;;;;;;;35.72;18.17;;;-0.50;99.90;;;;;;5050319;28;20037;-78
2021/01/09 05:51:25;;;;;;;42.08;18.92;;;-0.50;99.90;;;;;;5033838;28;20060;-79
2021/01/09 05:53:51;;;;;;;42.67;18.63;;;-0.50;99.90;;;;;;5034827;28;20044;-78
2021/01/09 05:56:21;;;;;;;41.03;18.35;;;-0.50;99.90;;;;;;5045437;28;20045;-78
2021/01/09 05:58:55;;;;;;;40.30;18.75;;;-0.50;99.90;;;;;;5048814;28;20034;-79
2021/01/09 06:01:29;;;;;;;41.97;18.13;;;-0.50;99.90;;;;;;5046899;28;20394;-80
2021/01/09 06:04:16;;;;;;;39.35;18.15;;;-0.50;99.90;;;;;;5038273;28;20033;-78
2021/01/09 06:06:49;;;;;;;42.00;17.90;;;-0.50;99.90;;;;;;5042341;28;20482;-79
2021/01/09 06:09:21;;;;;;;37.47;17.85;;;-0.50;99.90;;;;;;5034463;28;20394;-79
2021/01/09 06:11:48;;;;;;;40.47;16.48;;;-0.50;99.90;;;;;;5027279;28;20045;-79
2021/01/09 06:14:15;;;;;;;42.42;17.10;;;-0.50;99.90;;;;;;5020335;28;20033;-79
2021/01/09 06:16:43;;;;;;;43.15;18.48;;;-0.40;99.90;;;;;;5033411;28;20685;-79
2021/01/09 06:19:10;;;;;;;39.22;18.05;;;-0.40;99.90;;;;;;5049913;28;20041;-78
2021/01/09 06:21:37;;;;;;;42.70;17.85;;;-0.40;99.90;;;;;;5052590;28;20053;-78
2021/01/09 06:24:05;;;;;;;40.80;16.80;;;-0.40;99.90;;;;;;5044985;28;20045;-79
2021/01/09 06:26:33;;;;;;;42.03;15.82;;;-0.40;99.90;;;;;;5038511;28;20061;-79
2021/01/09 06:29:04;;;;;;;38.53;17.27;;;-0.40;99.90;;;;;;5034157;28;20399;-79
2021/01/09 06:31:31;;;;;;;44.15;18.42;;;-0.40;99.90;;;;;;5048836;28;20037;-79
2021/01/09 06:34:01;;;;;;;38.25;16.65;;;-0.40;99.90;;;;;;5042641;28;20041;-78
2021/01/09 06:36:27;;;;;;;40.40;16.60;;;-0.40;99.90;;;;;;5043346;28;20030;-80
2021/01/09 06:38:58;;;;;;;39.95;17.30;;;-0.40;99.90;;;;;;5038261;28;20038;-79
2021/01/09 06:41:29;;;;;;;41.88;16.70;;;-0.40;99.90;;;;;;5015332;28;20064;-80
2021/01/09 06:43:55;;;;;;;36.55;17.25;;;-0.40;99.90;;;;;;5051723;28;20405;-80
2021/01/09 06:46:26;;;;;;;35.40;15.20;;;-0.40;99.90;;;;;;5041733;28;20483;-79
2021/01/09 06:48:52;;;;;;;37.03;16.92;;;-0.40;99.90;;;;;;5044483;28;20042;-79
2021/01/09 06:51:37;;;;;;;35.80;16.95;;;-0.40;99.90;;;;;;5015846;28;20041;-79
2021/01/09 06:54:15;;;;;;;38.60;16.88;;;-0.40;99.90;;;;;;5036059;28;20024;-79
2021/01/09 06:56:49;;;;;;;40.20;15.93;;;-0.40;99.90;;;;;;5042052;28;20045;-79
2021/01/09 06:59:33;;;;;;;42.75;16.15;;;-0.40;99.90;;;;;;5015395;28;20037;-80
2021/01/09 07:02:21;;;;;;;34.42;15.63;;;-0.40;99.90;;;;;;5047598;28;20049;-80
2021/01/09 07:04:48;;;;;;;43.80;16.73;;;-0.40;99.90;;;;;;5047238;28;20402;-80
2021/01/09 07:07:27;;;;;;;42.65;16.73;;;-0.40;99.90;;;;;;5056257;28;20037;-80
2021/01/09 07:10:10;;;;;;;41.92;17.55;;;-0.40;99.90;;;;;;5033651;28;20037;-79
2021/01/09 07:12:39;;;;;;;39.90;17.45;;;-0.50;99.90;;;;;;5046960;28;20491;-79
2021/01/09 07:15:10;;;;;;;39.35;16.42;;;-0.50;99.90;;;;;;5049341;28;20033;-79
2021/01/09 07:17:44;;;;;;;36.03;15.45;;;-0.50;99.90;;;;;;5038844;28;20053;-79
2021/01/09 07:20:12;;;;;;;34.22;15.88;;;-0.50;99.90;;;;;;5032803;28;20025;-79
2021/01/09 07:22:40;;;;;;;35.53;15.35;;;-0.50;99.90;;;;;;5043480;28;20052;-79
2021/01/09 07:25:10;;;;;;;43.85;16.05;;;-0.50;99.90;;;;;;5031947;28;20117;-79
2021/01/09 07:27:45;;;;;;;35.92;15.35;;;-0.50;99.90;;;;;;5044929;28;20112;-80
2021/01/09 07:30:14;;;;;;;36.28;15.57;;;-0.50;99.90;;;;;;5033327;28;20040;-79
2021/01/09 07:32:43;;;;;;;36.80;15.55;;;-0.50;99.90;;;;;;5046679;28;20498;-79
2021/01/09 07:35:10;;;;;;;37.78;16.25;;;-0.40;99.90;;;;;;5048647;28;20038;-79
2021/01/09 07:37:40;;;;;;;38.15;16.13;;;-0.50;99.90;;;;;;5047118;28;20041;-79
2021/01/09 07:40:12;;;;;;;36.70;15.70;;;-0.50;99.90;;;;;;5035307;28;20532;-79
2021/01/09 07:42:39;;;;;;;37.60;16.85;;;-0.50;99.90;;;;;;5031520;28;20056;-79
2021/01/09 07:45:08;;;;;;;39.67;16.35;;;-0.50;99.90;;;;;;5050564;28;20048;-79
2021/01/09 07:47:41;;;;;;;40.25;18.02;;;-0.40;99.90;;;;;;5049287;28;20046;-79
2021/01/09 07:50:10;;;;;;;39.53;17.42;;;-0.40;99.90;;;;;;5038539;28;20474;-79
2021/01/09 07:52:36;;;;;;;37.22;16.75;;;-0.30;99.90;;;;;;5047325;28;20042;-79
2021/01/09 07:55:04;;;;;;;41.13;17.40;;;-0.30;99.90;;;;;;5049479;28;20049;-79
2021/01/09 07:57:30;;;;;;;42.63;17.60;;;-0.20;99.90;;;;;;5032316;28;20466;-79
2021/01/09 07:59:56;;;;;;;42.15;17.02;;;-0.20;99.90;;;;;;5047318;28;20026;-79
2021/01/09 08:02:33;;;;;;;40.72;16.90;;;-0.20;99.90;;;;;;5037066;28;20048;-80
2021/01/09 08:05:20;;;;;;;40.30;17.63;;;-0.10;99.90;;;;;;5047291;28;20044;-79
2021/01/09 08:07:53;;;;;;;45.75;18.50;;;0.00;99.90;;;;;;5046970;28;20514;-77
2021/01/09 08:10:27;;;;;;;37.58;18.40;;;0.00;99.90;;;;;;5035564;28;20044;-77
2021/01/09 08:13:01;;;;;;;40.90;18.63;;;0.10;99.90;;;;;;5047075;28;20533;-77
2021/01/09 08:15:29;;;;;;;31.80;15.90;;;0.10;99.90;;;;;;5046745;28;20039;-78
2021/01/09 08:17:59;;;;;;;37.42;16.35;;;0.20;99.90;;;;;;5043610;28;20029;-77
2021/01/09 08:20:26;;;;;;;32.38;16.02;;;0.20;99.90;;;;;;5042222;28;20391;-75
2021/01/09 08:22:55;;;;;;;36.58;17.05;;;0.30;99.90;;;;;;5039306;28;20033;-76
2021/01/09 08:25:26;;;;;;;32.45;15.73;;;0.30;99.90;;;;;;5031902;28;20490;-75
2021/01/09 08:28:01;;;;;;;27.52;14.98;;;0.30;99.90;;;;;;5031907;28;20144;-75
2021/01/09 08:30:29;;;;;;;32.13;16.10;;;0.40;99.90;;;;;;5031789;28;20119;-76
2021/01/09 08:33:16;;;;;;;30.75;15.73;;;0.50;99.90;;;;;;5031962;28;20037;-75
2021/01/09 08:35:52;;;;;;;27.63;14.95;;;0.50;99.90;;;;;;5032341;28;20048;-76
2021/01/09 08:38:26;;;;;;;30.05;14.27;;;0.60;99.90;;;;;;5032065;28;20033;-78
2021/01/09 08:40:59;;;;;;;33.20;16.08;;;0.60;99.90;;;;;;5032135;28;20056;-77
2021/01/09 08:43:25;;;;;;;28.83;15.02;;;0.70;99.90;;;;;;5032414;28;20049;-77
2021/01/09 08:45:55;;;;;;;25.13;13.30;;;0.70;99.90;;;;;;5014201;28;20050;-78
2021/01/09 08:48:39;;;;;;;27.67;14.02;;;0.80;99.90;;;;;;5014568;28;20037;-77
2021/01/09 08:51:14;;;;;;;27.55;13.98;;;0.90;99.90;;;;;;5031736;28;20034;-77
2021/01/09 08:54:02;;;;;;;24.85;14.30;;;1.00;99.90;;;;;;5031254;28;20035;-78
2021/01/09 08:56:30;;;;;;;27.63;13.55;;;1.00;99.90;;;;;;5038938;28;20038;-78
2021/01/09 08:59:02;;;;;;;26.17;13.52;;;1.00;99.90;;;;;;5043591;28;20033;-77
2021/01/09 09:01:49;;;;;;;24.52;13.65;;;1.00;99.90;;;;;;5040056;28;20479;-78
2021/01/09 09:04:22;;;;;;;25.95;12.93;;;0.90;99.90;;;;;;5021572;28;20068;-78
2021/01/09 09:06:59;;;;;;;25.85;13.80;;;1.10;99.90;;;;;;5030902;28;20041;-78
2021/01/09 09:09:28;;;;;;;20.02;12.48;;;1.20;99.90;;;;;;5044339;28;20041;-78
2021/01/09 09:11:55;;;;;;;26.85;14.55;;;1.20;99.90;;;;;;5034252;28;20045;-78
2021/01/09 09:14:21;;;;;;;27.13;13.63;;;1.30;99.90;;;;;;5031290;28;20036;-78
2021/01/09 09:17:03;;;;;;;21.90;12.32;;;1.30;99.90;;;;;;5030918;28;20041;-78
2021/01/09 09:19:38;;;;;;;22.25;11.75;;;1.30;99.90;;;;;;5048982;28;20048;-78
2021/01/09 09:22:05;;;;;;;21.42;12.68;;;1.30;99.90;;;;;;5035716;28;20045;-78
2021/01/09 09:24:45;;;;;;;21.15;12.07;;;1.40;99.90;;;;;;5034398;28;20036;-78
2021/01/09 09:27:32;;;;;;;20.90;12.23;;;1.50;99.90;;;;;;5043529;28;20482;-78
2021/01/09 09:30:10;;;;;;;20.95;12.13;;;1.60;99.90;;;;;;5034543;28;20505;-78
2021/01/09 09:32:38;;;;;;;21.42;12.07;;;1.60;99.90;;;;;;5032859;28;20041;-76
2021/01/09 09:35:24;;;;;;;25.27;12.40;;;1.70;99.90;;;;;;5034897;28;20063;-77
2021/01/09 09:37:52;;;;;;;22.50;12.82;;;1.70;99.90;;;;;;5036727;28;20038;-77
2021/01/09 09:40:25;;;;;;;22.15;12.23;;;1.50;99.90;;;;;;5055911;28;20044;-79
2021/01/09 09:42:52;;;;;;;20.50;11.30;;;1.50;99.90;;;;;;5037625;28;20041;-79
2021/01/09 09:45:18;;;;;;;20.05;11.85;;;1.60;99.90;;;;;;5054065;28;20471;-77
2021/01/09 09:47:49;;;;;;;19.60;11.30;;;1.70;99.90;;;;;;5035122;28;20059;-76
2021/01/09 09:50:23;;;;;;;20.35;11.55;;;1.70;99.90;;;;;;5041620;28;20033;-77
2021/01/09 09:53:00;;;;;;;21.58;11.38;;;1.90;99.90;;;;;;5047086;28;20056;-75
2021/01/09 09:55:27;;;;;;;20.38;10.00;;;2.00;99.90;;;;;;5034474;28;20044;-78
2021/01/09 09:58:10;;;;;;;19.10;10.65;;;2.20;99.90;;;;;;5051851;28;20033;-77
2021/01/09 10:00:44;;;;;;;16.40;10.15;;;2.40;99.90;;;;;;5047409;28;20037;-77
2021/01/09 10:03:10;;;;;;;17.02;9.10;;;2.70;99.90;;;;;;5053188;28;20374;-77
2021/01/09 10:05:37;;;;;;;13.73;8.80;;;2.70;99.90;;;;;;5050436;28;20021;-77
2021/01/09 10:08:13;;;;;;;17.15;9.02;;;2.60;99.90;;;;;;5050922;28;20037;-77
2021/01/09 10:10:41;;;;;;;15.40;8.90;;;2.60;99.90;;;;;;5048825;28;20033;-76
2021/01/09 10:13:07;;;;;;;16.77;9.65;;;2.60;99.90;;;;;;5048611;28;20048;-78
2021/01/09 10:15:34;;;;;;;18.38;9.15;;;2.60;99.90;;;;;;5033115;28;20036;-79
2021/01/09 10:18:01;;;;;;;16.10;8.75;;;2.50;99.90;;;;;;5017355;28;20052;-79
2021/01/09 10:20:28;;;;;;;17.38;10.23;;;2.50;99.90;;;;;;5017103;28;20045;-79
2021/01/09 10:22:55;;;;;;;15.68;9.18;;;2.50;99.90;;;;;;5049740;28;20029;-77
2021/01/09 10:25:22;;;;;;;14.85;9.20;;;2.40;99.90;;;;;;5032862;28;20041;-77
2021/01/09 10:27:51;;;;;;;15.32;8.88;;;2.40;99.90;;;;;;5031736;28;20045;-78
2021/01/09 10:30:18;;;;;;;17.25;9.88;;;2.40;99.90;;;;;;5053873;28;20044;-76
2021/01/09 10:32:44;;;;;;;16.63;9.65;;;2.50;99.90;;;;;;5034463;28;20056;-77
2021/01/09 10:35:11;;;;;;;16.30;8.95;;;2.50;99.90;;;;;;5033229;28;20403;-77
2021/01/09 10:37:37;;;;;;;17.27;9.10;;;2.50;99.90;;;;;;5033116;28;20032;-77
2021/01/09 10:40:04;;;;;;;17.70;10.43;;;2.50;99.90;;;;;;5032255;28;20042;-76
2021/01/09 10:42:30;;;;;;;16.67;9.82;;;2.60;99.90;;;;;;5033436;28;20498;-79
2021/01/09 10:44:56;;;;;;;16.77;10.07;;;2.70;99.90;;;;;;5039731;28;20052;-79
2021/01/09 10:47:23;;;;;;;16.23;9.32;;;2.80;99.90;;;;;;5033332;28;20398;-77
2021/01/09 10:49:49;;;;;;;15.07;8.68;;;2.80;99.90;;;;;;5032973;28;20044;-79
2021/01/09 10:52:15;;;;;;;15.05;8.70;;;2.70;99.90;;;;;;5045273;28;20040;-76
2021/01/09 10:54:41;;;;;;;16.05;9.38;;;2.70;99.90;;;;;;5050213;28;20398;-77
2021/01/09 10:57:08;;;;;;;14.10;8.57;;;2.60;99.90;;;;;;5050976;28;20041;-77
2021/01/09 10:59:34;;;;;;;14.02;8.82;;;2.70;99.90;;;;;;5030696;28;20048;-78
2021/01/09 11:02:04;;;;;;;16.25;9.35;;;2.90;99.90;;;;;;5033067;28;20045;-78
2021/01/09 11:04:30;;;;;;;18.42;9.60;;;2.80;99.90;;;;;;5031982;28;20056;-78
2021/01/09 11:06:58;;;;;;;14.23;8.40;;;2.90;99.90;;;;;;5034444;28;20526;-77
2021/01/09 11:09:25;;;;;;;13.88;8.45;;;3.10;99.90;;;;;;5015410;28;20042;-78
2021/01/09 11:11:51;;;;;;;13.32;7.85;;;3.20;99.90;;;;;;5032172;28;20467;-78
2021/01/09 11:14:18;;;;;;;9.77;6.03;;;3.20;99.90;;;;;;5015960;28;20045;-79
2021/01/09 11:16:44;;;;;;;11.70;6.65;;;3.20;99.90;;;;;;5042159;28;20049;-78
2021/01/09 11:19:11;;;;;;;12.68;7.45;;;3.20;99.90;;;;;;5032651;28;20052;-78
2021/01/09 11:21:38;;;;;;;11.23;6.82;;;3.10;99.90;;;;;;5032516;28;20033;-77
2021/01/09 11:24:05;;;;;;;14.02;6.78;;;3.30;99.90;;;;;;5034765;28;20025;-78
2021/01/09 11:26:31;;;;;;;10.30;6.18;;;3.40;99.90;;;;;;5030945;28;20057;-79
2021/01/09 11:28:58;;;;;;;14.13;7.55;;;3.50;99.90;;;;;;5047295;28;20037;-76
2021/01/09 11:31:25;;;;;;;12.57;7.70;;;3.70;99.90;;;;;;5042355;28;20038;-76
2021/01/09 11:33:51;;;;;;;15.05;8.68;;;3.60;99.90;;;;;;5049514;28;20036;-76
2021/01/09 11:36:18;;;;;;;13.57;7.40;;;3.70;99.90;;;;;;5033235;28;20037;-76
2021/01/09 11:38:47;;;;;;;12.52;7.68;;;3.70;99.90;;;;;;5029917;28;20045;-78
2021/01/09 11:41:16;;;;;;;13.27;7.78;;;3.80;99.90;;;;;;4993448;28;20089;-77
2021/01/09 11:43:43;;;;;;;12.30;7.75;;;3.80;99.90;;;;;;5026071;28;20052;-77
2021/01/09 11:46:10;;;;;;;14.52;8.20;;;3.90;99.90;;;;;;5029677;28;20045;-78
2021/01/09 11:48:36;;;;;;;14.80;8.57;;;3.80;99.90;;;;;;5010171;28;20491;-77
2021/01/09 11:51:03;;;;;;;14.95;7.60;;;3.70;99.90;;;;;;4993847;28;20045;-76
2021/01/09 11:53:30;;;;;;;12.10;7.97;;;3.50;99.90;;;;;;4978012;28;20053;-77
2021/01/09 11:55:56;;;;;;;13.63;7.50;;;3.40;99.90;;;;;;4993643;28;20148;-76
2021/01/09 11:58:22;;;;;;;15.15;6.95;;;3.40;99.90;;;;;;5004182;28;20049;-76
2021/01/09 12:00:49;;;;;;;11.48;6.55;;;3.20;99.90;;;;;;5010931;28;20045;-76
2021/01/09 12:03:15;;;;;;;11.48;6.57;;;3.20;99.90;;;;;;5020727;28;20037;-77
2021/01/09 12:05:41;;;;;;;11.90;6.25;;;3.10;99.90;;;;;;5012579;28;20038;-77
2021/01/09 12:08:08;;;;;;;14.95;8.13;;;3.20;99.90;;;;;;5014290;28;20037;-77
2021/01/09 12:10:34;;;;;;;9.95;6.22;;;3.20;99.90;;;;;;5042033;28;20044;-77
2021/01/09 12:13:04;;;;;;;10.23;5.88;;;3.20;99.90;;;;;;5045088;28;20033;-78
2021/01/09 12:15:31;;;;;;;12.40;6.63;;;3.20;99.90;;;;;;5045551;28;20033;-78
2021/01/09 12:17:57;;;;;;;11.00;5.50;;;3.10;99.90;;;;;;5037978;28;20417;-75
2021/01/09 12:20:23;;;;;;;12.43;6.10;;;3.20;99.90;;;;;;5038557;28;20152;-75
2021/01/09 12:22:49;;;;;;;8.95;5.10;;;3.30;99.90;;;;;;5031970;28;20291;-75
2021/01/09 12:25:16;;;;;;;11.18;5.93;;;3.30;99.90;;;;;;5031517;28;20033;-76
2021/01/09 12:27:42;;;;;;;9.80;6.20;;;3.40;99.90;;;;;;5031706;28;20037;-75
2021/01/09 12:30:09;;;;;;;10.82;6.10;;;3.40;99.90;;;;;;5031085;28;20411;-75
2021/01/09 12:32:35;;;;;;;14.65;7.32;;;3.50;99.90;;;;;;5031685;28;20085;-75
2021/01/09 12:35:03;;;;;;;9.40;5.82;;;3.60;99.90;;;;;;5032601;28;20029;-76
2021/01/09 12:37:30;;;;;;;9.65;6.35;;;3.60;99.90;;;;;;5045332;28;20394;-76
2021/01/09 12:39:56;;;;;;;11.52;5.70;;;3.70;99.90;;;;;;5032003;28;20472;-76
2021/01/09 12:42:24;;;;;;;10.23;5.68;;;3.70;99.60;;;;;;5031957;28;20412;-78